sensor_id;sensor_type;location;lat;lon;timestamp;P1;durP1;ratioP1;P2;durP2;ratioP2
79493;SDS011;68951;53.130;18.104;2023-05-07T00:00:36;11.90;;;6.40;;
79493;SDS011;68951;53.130;18.104;2023-05-07T00:03:19;10.70;;;5.80;;
79493;SDS011;68951;53.130;18.104;2023-05-07T00:05:46;11.10;;;5.70;;
79493;SDS011;68951;53.130;18.104;2023-05-07T00:08:13;9.30;;;5.20;;
79493;SDS011;68951;53.130;18.104;2023-05-07T00:10:40;11.40;;;4.90;;
79493;SDS011;68951;53.130;18.104;2023-05-07T00:13:07;9.40;;;4.80;;
79493;SDS011;68951;53.130;18.104;2023-05-07T00:15:34;8.20;;;4.40;;
79493;SDS011;68951;53.130;18.104;2023-05-07T00:18:01;8.00;;;4.20;;
79493;SDS011;68951;53.130;18.104;2023-05-07T00:20:28;8.30;;;3.70;;
79493;SDS011;68951;53.130;18.104;2023-05-07T00:22:55;8.60;;;3.50;;
79493;SDS011;68951;53.130;18.104;2023-05-07T00:25:22;9.30;;;4.60;;
79493;SDS011;68951;53.130;18.104;2023-05-07T00:27:48;11.40;;;5.10;;
79493;SDS011;68951;53.130;18.104;2023-05-07T00:30:15;10.10;;;5.60;;
79493;SDS011;68951;53.130;18.104;2023-05-07T00:32:42;11.90;;;5.20;;
79493;SDS011;68951;53.130;18.104;2023-05-07T00:35:11;11.50;;;5.40;;
79493;SDS011;68951;53.130;18.104;2023-05-07T00:37:39;10.80;;;5.20;;
79493;SDS011;68951;53.130;18.104;2023-05-07T00:40:06;9.30;;;4.40;;
79493;SDS011;68951;53.130;18.104;2023-05-07T00:42:34;9.50;;;3.70;;
79493;SDS011;68951;53.130;18.104;2023-05-07T00:45:01;7.60;;;4.30;;
79493;SDS011;68951;53.130;18.104;2023-05-07T00:47:28;9.50;;;4.20;;
79493;SDS011;68951;53.130;18.104;2023-05-07T00:49:56;8.60;;;3.90;;
79493;SDS011;68951;53.130;18.104;2023-05-07T00:52:25;10.90;;;5.20;;
79493;SDS011;68951;53.130;18.104;2023-05-07T00:54:53;11.20;;;5.60;;
79493;SDS011;68951;53.130;18.104;2023-05-07T00:57:21;11.20;;;5.80;;
79493;SDS011;68951;53.130;18.104;2023-05-07T00:59:51;13.60;;;5.70;;
79493;SDS011;68951;53.130;18.104;2023-05-07T01:02:18;10.90;;;5.70;;
79493;SDS011;68951;53.130;18.104;2023-05-07T01:04:45;10.00;;;5.80;;
79493;SDS011;68951;53.130;18.104;2023-05-07T01:07:12;9.70;;;5.30;;
79493;SDS011;68951;53.130;18.104;2023-05-07T01:09:39;10.90;;;5.60;;
79493;SDS011;68951;53.130;18.104;2023-05-07T01:12:07;9.60;;;4.60;;
79493;SDS011;68951;53.130;18.104;2023-05-07T01:14:34;8.40;;;4.30;;
79493;SDS011;68951;53.130;18.104;2023-05-07T01:17:01;9.40;;;4.80;;
79493;SDS011;68951;53.130;18.104;2023-05-07T01:19:29;10.40;;;5.90;;
79493;SDS011;68951;53.130;18.104;2023-05-07T01:22:02;11.40;;;5.60;;
79493;SDS011;68951;53.130;18.104;2023-05-07T01:24:33;10.80;;;5.70;;
79493;SDS011;68951;53.130;18.104;2023-05-07T01:27:02;11.20;;;5.70;;
79493;SDS011;68951;53.130;18.104;2023-05-07T01:29:29;10.90;;;5.50;;
79493;SDS011;68951;53.130;18.104;2023-05-07T01:31:58;10.50;;;5.80;;
79493;SDS011;68951;53.130;18.104;2023-05-07T01:34:28;12.10;;;6.20;;
79493;SDS011;68951;53.130;18.104;2023-05-07T01:36:58;10.30;;;6.10;;
79493;SDS011;68951;53.130;18.104;2023-05-07T01:39:27;10.20;;;5.90;;
79493;SDS011;68951;53.130;18.104;2023-05-07T01:41:55;10.30;;;5.80;;
79493;SDS011;68951;53.130;18.104;2023-05-07T01:44:23;10.00;;;5.20;;
79493;SDS011;68951;53.130;18.104;2023-05-07T01:46:50;11.60;;;5.80;;
79493;SDS011;68951;53.130;18.104;2023-05-07T01:49:18;8.60;;;4.90;;
79493;SDS011;68951;53.130;18.104;2023-05-07T01:51:46;11.10;;;5.30;;
79493;SDS011;68951;53.130;18.104;2023-05-07T01:54:13;11.50;;;5.40;;
79493;SDS011;68951;53.130;18.104;2023-05-07T01:56:40;10.00;;;5.50;;
79493;SDS011;68951;53.130;18.104;2023-05-07T01:59:07;10.00;;;4.70;;
79493;SDS011;68951;53.130;18.104;2023-05-07T02:01:34;9.20;;;4.70;;
79493;SDS011;68951;53.130;18.104;2023-05-07T02:04:01;11.80;;;5.80;;
79493;SDS011;68951;53.130;18.104;2023-05-07T02:06:28;11.40;;;6.10;;
79493;SDS011;68951;53.130;18.104;2023-05-07T02:08:54;10.50;;;4.70;;
79493;SDS011;68951;53.130;18.104;2023-05-07T02:11:21;9.30;;;4.10;;
79493;SDS011;68951;53.130;18.104;2023-05-07T02:13:48;12.40;;;5.40;;
79493;SDS011;68951;53.130;18.104;2023-05-07T02:16:15;9.30;;;5.40;;
79493;SDS011;68951;53.130;18.104;2023-05-07T02:18:42;9.80;;;5.10;;
79493;SDS011;68951;53.130;18.104;2023-05-07T02:21:09;10.90;;;5.50;;
79493;SDS011;68951;53.130;18.104;2023-05-07T02:23:36;10.60;;;5.70;;
79493;SDS011;68951;53.130;18.104;2023-05-07T02:26:03;11.70;;;5.20;;
79493;SDS011;68951;53.130;18.104;2023-05-07T02:28:31;10.50;;;4.70;;
79493;SDS011;68951;53.130;18.104;2023-05-07T02:30:57;8.20;;;3.90;;
79493;SDS011;68951;53.130;18.104;2023-05-07T02:33:26;8.30;;;4.10;;
79493;SDS011;68951;53.130;18.104;2023-05-07T02:35:53;8.70;;;4.00;;
79493;SDS011;68951;53.130;18.104;2023-05-07T02:38:19;7.80;;;3.50;;
79493;SDS011;68951;53.130;18.104;2023-05-07T02:40:46;7.10;;;3.20;;
79493;SDS011;68951;53.130;18.104;2023-05-07T02:43:13;9.70;;;5.20;;
79493;SDS011;68951;53.130;18.104;2023-05-07T02:45:40;9.10;;;4.50;;
79493;SDS011;68951;53.130;18.104;2023-05-07T02:48:07;11.70;;;5.10;;
79493;SDS011;68951;53.130;18.104;2023-05-07T02:50:34;11.10;;;5.20;;
79493;SDS011;68951;53.130;18.104;2023-05-07T02:53:01;9.10;;;5.20;;
79493;SDS011;68951;53.130;18.104;2023-05-07T02:55:28;12.10;;;6.20;;
79493;SDS011;68951;53.130;18.104;2023-05-07T02:57:54;10.60;;;5.70;;
79493;SDS011;68951;53.130;18.104;2023-05-07T03:00:21;11.10;;;5.90;;
79493;SDS011;68951;53.130;18.104;2023-05-07T03:02:48;11.50;;;5.40;;
79493;SDS011;68951;53.130;18.104;2023-05-07T03:05:15;9.60;;;5.00;;
79493;SDS011;68951;53.130;18.104;2023-05-07T03:07:42;11.30;;;5.90;;
79493;SDS011;68951;53.130;18.104;2023-05-07T03:10:11;12.30;;;6.30;;
79493;SDS011;68951;53.130;18.104;2023-05-07T03:12:39;14.20;;;6.80;;
79493;SDS011;68951;53.130;18.104;2023-05-07T03:15:06;12.80;;;5.80;;
79493;SDS011;68951;53.130;18.104;2023-05-07T03:17:34;13.70;;;7.30;;
79493;SDS011;68951;53.130;18.104;2023-05-07T03:20:01;13.80;;;8.20;;
79493;SDS011;68951;53.130;18.104;2023-05-07T03:22:28;16.60;;;10.50;;
79493;SDS011;68951;53.130;18.104;2023-05-07T03:24:54;18.40;;;10.80;;
79493;SDS011;68951;53.130;18.104;2023-05-07T03:27:21;16.90;;;9.70;;
79493;SDS011;68951;53.130;18.104;2023-05-07T03:29:48;18.10;;;11.00;;
79493;SDS011;68951;53.130;18.104;2023-05-07T03:32:15;17.80;;;10.20;;
79493;SDS011;68951;53.130;18.104;2023-05-07T03:34:42;19.10;;;11.20;;
79493;SDS011;68951;53.130;18.104;2023-05-07T03:37:08;19.20;;;11.20;;
79493;SDS011;68951;53.130;18.104;2023-05-07T03:39:35;21.60;;;11.00;;
79493;SDS011;68951;53.130;18.104;2023-05-07T03:42:02;16.70;;;8.90;;
79493;SDS011;68951;53.130;18.104;2023-05-07T03:44:29;19.30;;;10.70;;
79493;SDS011;68951;53.130;18.104;2023-05-07T03:46:56;17.40;;;9.70;;
79493;SDS011;68951;53.130;18.104;2023-05-07T03:49:23;19.10;;;11.00;;
79493;SDS011;68951;53.130;18.104;2023-05-07T03:51:50;21.00;;;12.90;;
79493;SDS011;68951;53.130;18.104;2023-05-07T03:54:17;18.80;;;11.50;;
79493;SDS011;68951;53.130;18.104;2023-05-07T03:56:43;16.60;;;9.80;;
79493;SDS011;68951;53.130;18.104;2023-05-07T03:59:11;12.50;;;7.20;;
79493;SDS011;68951;53.130;18.104;2023-05-07T04:01:41;14.90;;;8.40;;
79493;SDS011;68951;53.130;18.104;2023-05-07T04:04:08;12.10;;;6.70;;
79493;SDS011;68951;53.130;18.104;2023-05-07T04:06:35;18.00;;;8.80;;
79493;SDS011;68951;53.130;18.104;2023-05-07T04:09:02;14.40;;;7.60;;
79493;SDS011;68951;53.130;18.104;2023-05-07T04:11:28;12.90;;;6.80;;
79493;SDS011;68951;53.130;18.104;2023-05-07T04:13:55;16.10;;;9.40;;
79493;SDS011;68951;53.130;18.104;2023-05-07T04:16:22;18.00;;;10.70;;
79493;SDS011;68951;53.130;18.104;2023-05-07T04:18:49;17.90;;;10.30;;
79493;SDS011;68951;53.130;18.104;2023-05-07T04:21:17;15.10;;;8.80;;
79493;SDS011;68951;53.130;18.104;2023-05-07T04:23:46;13.10;;;7.10;;
79493;SDS011;68951;53.130;18.104;2023-05-07T04:26:14;12.50;;;7.50;;
79493;SDS011;68951;53.130;18.104;2023-05-07T04:28:42;12.70;;;7.40;;
79493;SDS011;68951;53.130;18.104;2023-05-07T04:31:09;17.00;;;9.00;;
79493;SDS011;68951;53.130;18.104;2023-05-07T04:33:35;15.80;;;8.10;;
79493;SDS011;68951;53.130;18.104;2023-05-07T04:36:03;16.90;;;8.40;;
79493;SDS011;68951;53.130;18.104;2023-05-07T04:38:31;17.10;;;8.30;;
79493;SDS011;68951;53.130;18.104;2023-05-07T04:41:05;15.20;;;8.90;;
79493;SDS011;68951;53.130;18.104;2023-05-07T04:43:32;16.40;;;9.50;;
79493;SDS011;68951;53.130;18.104;2023-05-07T04:45:59;14.20;;;8.80;;
79493;SDS011;68951;53.130;18.104;2023-05-07T04:48:26;12.40;;;7.10;;
79493;SDS011;68951;53.130;18.104;2023-05-07T04:50:53;13.80;;;7.60;;
79493;SDS011;68951;53.130;18.104;2023-05-07T04:53:20;18.80;;;9.50;;
79493;SDS011;68951;53.130;18.104;2023-05-07T04:55:48;15.60;;;8.90;;
79493;SDS011;68951;53.130;18.104;2023-05-07T04:58:15;17.60;;;10.40;;
79493;SDS011;68951;53.130;18.104;2023-05-07T05:00:42;21.90;;;11.10;;
79493;SDS011;68951;53.130;18.104;2023-05-07T05:03:09;16.90;;;10.50;;
79493;SDS011;68951;53.130;18.104;2023-05-07T05:05:35;16.40;;;9.10;;
79493;SDS011;68951;53.130;18.104;2023-05-07T05:08:02;13.50;;;7.90;;
79493;SDS011;68951;53.130;18.104;2023-05-07T05:10:29;13.10;;;7.30;;
79493;SDS011;68951;53.130;18.104;2023-05-07T05:12:56;16.20;;;8.80;;
79493;SDS011;68951;53.130;18.104;2023-05-07T05:15:23;18.20;;;10.20;;
79493;SDS011;68951;53.130;18.104;2023-05-07T05:17:50;16.70;;;9.40;;
79493;SDS011;68951;53.130;18.104;2023-05-07T05:20:17;14.80;;;9.40;;
79493;SDS011;68951;53.130;18.104;2023-05-07T05:22:43;14.70;;;8.80;;
79493;SDS011;68951;53.130;18.104;2023-05-07T05:25:11;13.10;;;7.70;;
79493;SDS011;68951;53.130;18.104;2023-05-07T05:27:37;15.40;;;7.50;;
79493;SDS011;68951;53.130;18.104;2023-05-07T05:30:05;12.30;;;6.90;;
79493;SDS011;68951;53.130;18.104;2023-05-07T05:32:32;11.90;;;7.20;;
79493;SDS011;68951;53.130;18.104;2023-05-07T05:34:59;15.50;;;7.30;;
79493;SDS011;68951;53.130;18.104;2023-05-07T05:37:26;13.40;;;6.80;;
79493;SDS011;68951;53.130;18.104;2023-05-07T05:39:53;14.90;;;7.40;;
79493;SDS011;68951;53.130;18.104;2023-05-07T05:42:21;11.70;;;6.80;;
79493;SDS011;68951;53.130;18.104;2023-05-07T05:44:49;15.90;;;9.10;;
79493;SDS011;68951;53.130;18.104;2023-05-07T05:47:15;15.40;;;8.70;;
79493;SDS011;68951;53.130;18.104;2023-05-07T05:49:42;15.00;;;8.00;;
79493;SDS011;68951;53.130;18.104;2023-05-07T05:52:12;14.90;;;8.80;;
79493;SDS011;68951;53.130;18.104;2023-05-07T05:54:40;13.40;;;7.60;;
79493;SDS011;68951;53.130;18.104;2023-05-07T05:57:07;13.20;;;7.40;;
79493;SDS011;68951;53.130;18.104;2023-05-07T05:59:34;15.00;;;7.30;;
79493;SDS011;68951;53.130;18.104;2023-05-07T06:02:00;14.00;;;7.80;;
79493;SDS011;68951;53.130;18.104;2023-05-07T06:04:27;11.90;;;6.90;;
79493;SDS011;68951;53.130;18.104;2023-05-07T06:06:54;13.00;;;6.50;;
79493;SDS011;68951;53.130;18.104;2023-05-07T06:09:21;13.30;;;7.20;;
79493;SDS011;68951;53.130;18.104;2023-05-07T06:11:48;11.90;;;6.80;;
79493;SDS011;68951;53.130;18.104;2023-05-07T06:14:15;14.00;;;6.50;;
79493;SDS011;68951;53.130;18.104;2023-05-07T06:16:42;11.60;;;5.60;;
79493;SDS011;68951;53.130;18.104;2023-05-07T06:19:09;12.90;;;7.70;;
79493;SDS011;68951;53.130;18.104;2023-05-07T06:21:35;17.50;;;8.50;;
79493;SDS011;68951;53.130;18.104;2023-05-07T06:24:02;12.90;;;7.80;;
79493;SDS011;68951;53.130;18.104;2023-05-07T06:26:29;13.00;;;7.90;;
79493;SDS011;68951;53.130;18.104;2023-05-07T06:28:56;13.30;;;7.40;;
79493;SDS011;68951;53.130;18.104;2023-05-07T06:31:23;13.40;;;7.10;;
79493;SDS011;68951;53.130;18.104;2023-05-07T06:33:55;12.50;;;7.20;;
79493;SDS011;68951;53.130;18.104;2023-05-07T06:36:22;15.00;;;7.50;;
79493;SDS011;68951;53.130;18.104;2023-05-07T06:38:49;13.40;;;7.30;;
79493;SDS011;68951;53.130;18.104;2023-05-07T06:41:16;12.90;;;7.70;;
79493;SDS011;68951;53.130;18.104;2023-05-07T06:43:42;12.00;;;6.90;;
79493;SDS011;68951;53.130;18.104;2023-05-07T06:46:09;17.30;;;7.40;;
79493;SDS011;68951;53.130;18.104;2023-05-07T06:48:36;11.70;;;6.20;;
79493;SDS011;68951;53.130;18.104;2023-05-07T06:51:03;10.50;;;5.60;;
79493;SDS011;68951;53.130;18.104;2023-05-07T06:53:30;10.30;;;5.60;;
79493;SDS011;68951;53.130;18.104;2023-05-07T06:55:57;11.50;;;6.50;;
79493;SDS011;68951;53.130;18.104;2023-05-07T06:58:24;11.90;;;6.60;;
79493;SDS011;68951;53.130;18.104;2023-05-07T07:00:51;8.20;;;4.40;;
79493;SDS011;68951;53.130;18.104;2023-05-07T07:03:18;8.70;;;4.80;;
79493;SDS011;68951;53.130;18.104;2023-05-07T07:05:45;11.30;;;5.70;;
79493;SDS011;68951;53.130;18.104;2023-05-07T07:08:11;11.30;;;5.40;;
79493;SDS011;68951;53.130;18.104;2023-05-07T07:10:38;10.10;;;5.10;;
79493;SDS011;68951;53.130;18.104;2023-05-07T07:13:06;8.80;;;4.10;;
79493;SDS011;68951;53.130;18.104;2023-05-07T07:15:32;9.80;;;4.40;;
79493;SDS011;68951;53.130;18.104;2023-05-07T07:17:59;10.20;;;5.30;;
79493;SDS011;68951;53.130;18.104;2023-05-07T07:20:26;10.30;;;4.10;;
79493;SDS011;68951;53.130;18.104;2023-05-07T07:22:53;8.50;;;4.10;;
79493;SDS011;68951;53.130;18.104;2023-05-07T07:25:20;8.50;;;4.00;;
79493;SDS011;68951;53.130;18.104;2023-05-07T07:27:47;8.00;;;3.60;;
79493;SDS011;68951;53.130;18.104;2023-05-07T07:30:14;9.00;;;3.20;;
79493;SDS011;68951;53.130;18.104;2023-05-07T07:32:41;6.50;;;3.10;;
79493;SDS011;68951;53.130;18.104;2023-05-07T07:35:09;7.00;;;2.70;;
79493;SDS011;68951;53.130;18.104;2023-05-07T07:37:36;7.70;;;2.70;;
79493;SDS011;68951;53.130;18.104;2023-05-07T07:40:03;6.70;;;2.80;;
79493;SDS011;68951;53.130;18.104;2023-05-07T07:42:31;6.70;;;3.20;;
79493;SDS011;68951;53.130;18.104;2023-05-07T07:44:58;6.90;;;2.30;;
79493;SDS011;68951;53.130;18.104;2023-05-07T07:47:25;6.30;;;2.20;;
79493;SDS011;68951;53.130;18.104;2023-05-07T07:49:51;6.00;;;2.40;;
79493;SDS011;68951;53.130;18.104;2023-05-07T07:52:18;7.00;;;2.30;;
79493;SDS011;68951;53.130;18.104;2023-05-07T07:54:45;5.40;;;2.20;;
79493;SDS011;68951;53.130;18.104;2023-05-07T07:57:12;6.20;;;2.20;;
79493;SDS011;68951;53.130;18.104;2023-05-07T07:59:39;5.30;;;2.30;;
79493;SDS011;68951;53.130;18.104;2023-05-07T08:02:06;5.60;;;2.10;;
79493;SDS011;68951;53.130;18.104;2023-05-07T08:04:33;4.50;;;1.70;;
79493;SDS011;68951;53.130;18.104;2023-05-07T08:07:00;5.60;;;1.80;;
79493;SDS011;68951;53.130;18.104;2023-05-07T08:09:26;5.10;;;2.00;;
79493;SDS011;68951;53.130;18.104;2023-05-07T08:11:54;6.90;;;2.30;;
79493;SDS011;68951;53.130;18.104;2023-05-07T08:14:21;5.60;;;2.30;;
79493;SDS011;68951;53.130;18.104;2023-05-07T08:16:48;6.50;;;2.40;;
79493;SDS011;68951;53.130;18.104;2023-05-07T08:19:15;5.50;;;2.10;;
79493;SDS011;68951;53.130;18.104;2023-05-07T08:21:42;7.60;;;2.80;;
79493;SDS011;68951;53.130;18.104;2023-05-07T08:24:09;5.90;;;2.30;;
79493;SDS011;68951;53.130;18.104;2023-05-07T08:26:36;4.60;;;1.70;;
79493;SDS011;68951;53.130;18.104;2023-05-07T08:29:05;5.70;;;2.00;;
79493;SDS011;68951;53.130;18.104;2023-05-07T08:31:32;5.20;;;1.90;;
79493;SDS011;68951;53.130;18.104;2023-05-07T08:33:59;5.00;;;2.00;;
79493;SDS011;68951;53.130;18.104;2023-05-07T08:36:26;5.80;;;1.70;;
79493;SDS011;68951;53.130;18.104;2023-05-07T08:38:55;5.20;;;2.00;;
79493;SDS011;68951;53.130;18.104;2023-05-07T08:41:22;4.50;;;1.90;;
79493;SDS011;68951;53.130;18.104;2023-05-07T08:43:50;7.80;;;2.20;;
79493;SDS011;68951;53.130;18.104;2023-05-07T08:46:19;6.60;;;2.50;;
79493;SDS011;68951;53.130;18.104;2023-05-07T08:48:49;6.80;;;1.90;;
79493;SDS011;68951;53.130;18.104;2023-05-07T08:51:21;5.00;;;1.90;;
79493;SDS011;68951;53.130;18.104;2023-05-07T08:53:49;5.10;;;2.00;;
79493;SDS011;68951;53.130;18.104;2023-05-07T08:56:17;6.40;;;1.90;;
79493;SDS011;68951;53.130;18.104;2023-05-07T08:58:44;5.60;;;1.90;;
79493;SDS011;68951;53.130;18.104;2023-05-07T09:01:16;4.70;;;2.00;;
79493;SDS011;68951;53.130;18.104;2023-05-07T09:03:46;4.60;;;1.70;;
79493;SDS011;68951;53.130;18.104;2023-05-07T09:06:14;5.00;;;1.70;;
79493;SDS011;68951;53.130;18.104;2023-05-07T09:08:48;5.40;;;2.20;;
79493;SDS011;68951;53.130;18.104;2023-05-07T09:11:20;4.40;;;2.00;;
79493;SDS011;68951;53.130;18.104;2023-05-07T09:13:48;5.30;;;2.20;;
79493;SDS011;68951;53.130;18.104;2023-05-07T09:16:21;6.00;;;2.10;;
79493;SDS011;68951;53.130;18.104;2023-05-07T09:18:51;4.80;;;2.00;;
79493;SDS011;68951;53.130;18.104;2023-05-07T09:21:20;6.10;;;2.00;;
79493;SDS011;68951;53.130;18.104;2023-05-07T09:23:53;4.70;;;2.10;;
79493;SDS011;68951;53.130;18.104;2023-05-07T09:26:22;5.80;;;2.10;;
79493;SDS011;68951;53.130;18.104;2023-05-07T09:28:50;5.20;;;2.10;;
79493;SDS011;68951;53.130;18.104;2023-05-07T09:31:18;5.40;;;2.00;;
79493;SDS011;68951;53.130;18.104;2023-05-07T09:33:46;5.60;;;2.60;;
79493;SDS011;68951;53.130;18.104;2023-05-07T09:36:13;5.10;;;2.20;;
79493;SDS011;68951;53.130;18.104;2023-05-07T09:38:40;5.70;;;2.30;;
79493;SDS011;68951;53.130;18.104;2023-05-07T09:41:10;5.80;;;2.30;;
79493;SDS011;68951;53.130;18.104;2023-05-07T09:43:39;5.20;;;2.20;;
79493;SDS011;68951;53.130;18.104;2023-05-07T09:46:14;6.40;;;2.50;;
79493;SDS011;68951;53.130;18.104;2023-05-07T09:48:43;5.80;;;2.30;;
79493;SDS011;68951;53.130;18.104;2023-05-07T09:51:28;5.70;;;2.30;;
79493;SDS011;68951;53.130;18.104;2023-05-07T09:53:57;6.40;;;2.30;;
79493;SDS011;68951;53.130;18.104;2023-05-07T09:56:27;5.30;;;2.90;;
79493;SDS011;68951;53.130;18.104;2023-05-07T09:58:57;5.70;;;2.40;;
79493;SDS011;68951;53.130;18.104;2023-05-07T10:01:27;6.70;;;2.60;;
79493;SDS011;68951;53.130;18.104;2023-05-07T10:03:55;5.30;;;2.60;;
79493;SDS011;68951;53.130;18.104;2023-05-07T10:06:24;8.90;;;2.50;;
79493;SDS011;68951;53.130;18.104;2023-05-07T10:08:54;5.80;;;2.10;;
79493;SDS011;68951;53.130;18.104;2023-05-07T10:11:22;4.50;;;2.30;;
79493;SDS011;68951;53.130;18.104;2023-05-07T10:13:49;5.80;;;2.40;;
79493;SDS011;68951;53.130;18.104;2023-05-07T10:16:20;6.50;;;2.40;;
79493;SDS011;68951;53.130;18.104;2023-05-07T10:18:47;5.80;;;2.50;;
79493;SDS011;68951;53.130;18.104;2023-05-07T10:21:20;5.70;;;2.90;;
79493;SDS011;68951;53.130;18.104;2023-05-07T10:23:51;6.50;;;2.40;;
79493;SDS011;68951;53.130;18.104;2023-05-07T10:26:25;7.20;;;2.30;;
79493;SDS011;68951;53.130;18.104;2023-05-07T10:28:59;5.90;;;2.40;;
79493;SDS011;68951;53.130;18.104;2023-05-07T10:31:52;4.60;;;2.00;;
79493;SDS011;68951;53.130;18.104;2023-05-07T10:34:29;4.80;;;2.10;;
79493;SDS011;68951;53.130;18.104;2023-05-07T10:37:03;5.50;;;2.40;;
79493;SDS011;68951;53.130;18.104;2023-05-07T10:39:31;4.40;;;2.00;;
79493;SDS011;68951;53.130;18.104;2023-05-07T10:42:07;6.40;;;2.30;;
79493;SDS011;68951;53.130;18.104;2023-05-07T10:44:35;4.90;;;2.50;;
79493;SDS011;68951;53.130;18.104;2023-05-07T10:47:08;5.00;;;2.40;;
79493;SDS011;68951;53.130;18.104;2023-05-07T10:52:18;4.90;;;2.30;;
79493;SDS011;68951;53.130;18.104;2023-05-07T10:57:44;6.50;;;2.50;;
79493;SDS011;68951;53.130;18.104;2023-05-07T11:05:31;4.30;;;2.00;;
79493;SDS011;68951;53.130;18.104;2023-05-07T11:08:01;5.40;;;2.60;;
79493;SDS011;68951;53.130;18.104;2023-05-07T11:10:55;5.40;;;2.80;;
79493;SDS011;68951;53.130;18.104;2023-05-07T11:13:47;5.40;;;2.50;;
79493;SDS011;68951;53.130;18.104;2023-05-07T11:16:23;5.70;;;2.30;;
79493;SDS011;68951;53.130;18.104;2023-05-07T11:18:53;5.20;;;2.40;;
79493;SDS011;68951;53.130;18.104;2023-05-07T11:21:41;5.20;;;2.50;;
79493;SDS011;68951;53.130;18.104;2023-05-07T11:24:09;7.40;;;3.20;;
79493;SDS011;68951;53.130;18.104;2023-05-07T11:26:44;5.00;;;2.60;;
79493;SDS011;68951;53.130;18.104;2023-05-07T11:29:20;5.10;;;2.40;;
79493;SDS011;68951;53.130;18.104;2023-05-07T11:31:50;6.90;;;2.60;;
79493;SDS011;68951;53.130;18.104;2023-05-07T11:34:22;5.90;;;2.90;;
79493;SDS011;68951;53.130;18.104;2023-05-07T11:36:52;7.00;;;3.30;;
79493;SDS011;68951;53.130;18.104;2023-05-07T11:39:26;6.30;;;3.30;;
79493;SDS011;68951;53.130;18.104;2023-05-07T11:42:00;6.60;;;3.30;;
79493;SDS011;68951;53.130;18.104;2023-05-07T11:44:44;6.20;;;3.40;;
79493;SDS011;68951;53.130;18.104;2023-05-07T11:47:17;6.50;;;3.00;;
79493;SDS011;68951;53.130;18.104;2023-05-07T11:49:49;7.30;;;3.50;;
79493;SDS011;68951;53.130;18.104;2023-05-07T11:52:18;5.10;;;2.40;;
79493;SDS011;68951;53.130;18.104;2023-05-07T11:54:54;4.70;;;2.60;;
79493;SDS011;68951;53.130;18.104;2023-05-07T11:57:25;5.10;;;2.50;;
79493;SDS011;68951;53.130;18.104;2023-05-07T11:59:57;6.30;;;2.90;;
79493;SDS011;68951;53.130;18.104;2023-05-07T12:02:25;5.40;;;2.20;;
79493;SDS011;68951;53.130;18.104;2023-05-07T12:04:53;5.70;;;2.60;;
79493;SDS011;68951;53.130;18.104;2023-05-07T12:07:21;5.70;;;2.60;;
79493;SDS011;68951;53.130;18.104;2023-05-07T12:09:50;5.00;;;2.80;;
79493;SDS011;68951;53.130;18.104;2023-05-07T12:12:17;5.70;;;2.80;;
79493;SDS011;68951;53.130;18.104;2023-05-07T12:14:45;5.20;;;2.50;;
79493;SDS011;68951;53.130;18.104;2023-05-07T12:17:13;4.40;;;2.20;;
79493;SDS011;68951;53.130;18.104;2023-05-07T12:19:42;3.80;;;2.30;;
79493;SDS011;68951;53.130;18.104;2023-05-07T12:22:11;4.20;;;2.30;;
79493;SDS011;68951;53.130;18.104;2023-05-07T12:24:49;4.40;;;2.40;;
79493;SDS011;68951;53.130;18.104;2023-05-07T12:27:23;4.30;;;2.50;;
79493;SDS011;68951;53.130;18.104;2023-05-07T12:29:50;5.70;;;2.40;;
79493;SDS011;68951;53.130;18.104;2023-05-07T12:32:20;4.20;;;2.30;;
79493;SDS011;68951;53.130;18.104;2023-05-07T12:34:51;4.20;;;2.20;;
79493;SDS011;68951;53.130;18.104;2023-05-07T12:37:23;5.60;;;2.60;;
79493;SDS011;68951;53.130;18.104;2023-05-07T12:40:09;5.20;;;2.30;;
79493;SDS011;68951;53.130;18.104;2023-05-07T12:42:40;5.40;;;2.50;;
79493;SDS011;68951;53.130;18.104;2023-05-07T12:45:14;6.00;;;2.50;;
79493;SDS011;68951;53.130;18.104;2023-05-07T12:47:46;4.60;;;2.30;;
79493;SDS011;68951;53.130;18.104;2023-05-07T12:50:16;4.20;;;2.20;;
79493;SDS011;68951;53.130;18.104;2023-05-07T12:52:45;4.80;;;2.40;;
79493;SDS011;68951;53.130;18.104;2023-05-07T12:55:16;8.70;;;3.10;;
79493;SDS011;68951;53.130;18.104;2023-05-07T12:57:47;5.40;;;2.50;;
79493;SDS011;68951;53.130;18.104;2023-05-07T13:00:15;6.00;;;2.70;;
79493;SDS011;68951;53.130;18.104;2023-05-07T13:02:43;5.60;;;2.80;;
79493;SDS011;68951;53.130;18.104;2023-05-07T13:05:11;5.80;;;2.40;;
79493;SDS011;68951;53.130;18.104;2023-05-07T13:07:38;6.10;;;2.60;;
79493;SDS011;68951;53.130;18.104;2023-05-07T13:10:07;4.50;;;2.50;;
79493;SDS011;68951;53.130;18.104;2023-05-07T13:12:34;4.20;;;2.50;;
79493;SDS011;68951;53.130;18.104;2023-05-07T13:15:02;5.00;;;2.70;;
79493;SDS011;68951;53.130;18.104;2023-05-07T13:17:29;7.50;;;2.80;;
79493;SDS011;68951;53.130;18.104;2023-05-07T13:19:57;5.60;;;2.70;;
79493;SDS011;68951;53.130;18.104;2023-05-07T13:22:24;4.80;;;2.40;;
79493;SDS011;68951;53.130;18.104;2023-05-07T13:24:51;4.90;;;2.50;;
79493;SDS011;68951;53.130;18.104;2023-05-07T13:27:18;4.70;;;2.90;;
79493;SDS011;68951;53.130;18.104;2023-05-07T13:29:45;5.30;;;2.70;;
79493;SDS011;68951;53.130;18.104;2023-05-07T13:32:12;4.80;;;2.70;;
79493;SDS011;68951;53.130;18.104;2023-05-07T13:34:39;6.20;;;2.60;;
79493;SDS011;68951;53.130;18.104;2023-05-07T13:37:06;6.30;;;2.50;;
79493;SDS011;68951;53.130;18.104;2023-05-07T13:39:34;5.00;;;2.50;;
79493;SDS011;68951;53.130;18.104;2023-05-07T13:42:01;4.60;;;2.30;;
79493;SDS011;68951;53.130;18.104;2023-05-07T13:44:28;5.40;;;2.50;;
79493;SDS011;68951;53.130;18.104;2023-05-07T13:46:55;4.30;;;2.50;;
79493;SDS011;68951;53.130;18.104;2023-05-07T13:49:22;3.80;;;2.10;;
79493;SDS011;68951;53.130;18.104;2023-05-07T13:51:50;4.40;;;2.40;;
79493;SDS011;68951;53.130;18.104;2023-05-07T13:54:17;5.00;;;2.30;;
79493;SDS011;68951;53.130;18.104;2023-05-07T13:56:44;4.50;;;2.20;;
79493;SDS011;68951;53.130;18.104;2023-05-07T13:59:11;5.20;;;2.30;;
79493;SDS011;68951;53.130;18.104;2023-05-07T14:01:40;5.60;;;2.40;;
79493;SDS011;68951;53.130;18.104;2023-05-07T14:04:07;5.70;;;2.40;;
79493;SDS011;68951;53.130;18.104;2023-05-07T14:06:34;6.20;;;2.40;;
79493;SDS011;68951;53.130;18.104;2023-05-07T14:09:01;4.50;;;2.50;;
79493;SDS011;68951;53.130;18.104;2023-05-07T14:11:28;4.60;;;2.10;;
79493;SDS011;68951;53.130;18.104;2023-05-07T14:13:55;4.50;;;2.20;;
79493;SDS011;68951;53.130;18.104;2023-05-07T14:16:23;5.00;;;2.40;;
79493;SDS011;68951;53.130;18.104;2023-05-07T14:18:50;4.30;;;2.30;;
79493;SDS011;68951;53.130;18.104;2023-05-07T14:21:16;5.50;;;2.20;;
79493;SDS011;68951;53.130;18.104;2023-05-07T14:23:44;5.50;;;2.30;;
79493;SDS011;68951;53.130;18.104;2023-05-07T14:26:11;4.50;;;2.00;;
79493;SDS011;68951;53.130;18.104;2023-05-07T14:28:38;6.40;;;2.40;;
79493;SDS011;68951;53.130;18.104;2023-05-07T14:31:05;7.40;;;2.60;;
79493;SDS011;68951;53.130;18.104;2023-05-07T14:33:33;5.20;;;2.40;;
79493;SDS011;68951;53.130;18.104;2023-05-07T14:36:00;4.60;;;2.50;;
79493;SDS011;68951;53.130;18.104;2023-05-07T14:38:27;4.20;;;1.60;;
79493;SDS011;68951;53.130;18.104;2023-05-07T14:40:54;5.00;;;2.10;;
79493;SDS011;68951;53.130;18.104;2023-05-07T14:43:22;5.50;;;2.70;;
79493;SDS011;68951;53.130;18.104;2023-05-07T14:45:50;5.80;;;2.10;;